sensor_id;sensor_type;location;lat;lon;timestamp;P1;durP1;ratioP1;P2;durP2;ratioP2
7045;SDS011;3564;53.326;10.356;2023-06-14T00:00:18;4.23;;;2.70;;
7045;SDS011;3564;53.326;10.356;2023-06-14T00:02:45;5.07;;;3.00;;
7045;SDS011;3564;53.326;10.356;2023-06-14T00:05:10;5.83;;;2.37;;
7045;SDS011;3564;53.326;10.356;2023-06-14T00:07:37;3.30;;;2.60;;
7045;SDS011;3564;53.326;10.356;2023-06-14T00:10:08;4.10;;;2.70;;
7045;SDS011;3564;53.326;10.356;2023-06-14T00:12:37;5.77;;;3.03;;
7045;SDS011;3564;53.326;10.356;2023-06-14T00:15:04;4.30;;;2.87;;
7045;SDS011;3564;53.326;10.356;2023-06-14T00:17:34;3.70;;;2.60;;
7045;SDS011;3564;53.326;10.356;2023-06-14T00:20:02;3.77;;;2.73;;
7045;SDS011;3564;53.326;10.356;2023-06-14T00:22:32;6.17;;;3.00;;
7045;SDS011;3564;53.326;10.356;2023-06-14T00:24:58;5.10;;;3.03;;
7045;SDS011;3564;53.326;10.356;2023-06-14T00:27:24;4.83;;;3.13;;
7045;SDS011;3564;53.326;10.356;2023-06-14T00:29:50;3.63;;;2.83;;
7045;SDS011;3564;53.326;10.356;2023-06-14T00:32:15;5.33;;;2.83;;
7045;SDS011;3564;53.326;10.356;2023-06-14T00:34:41;5.33;;;2.90;;
7045;SDS011;3564;53.326;10.356;2023-06-14T00:37:08;8.33;;;3.40;;
7045;SDS011;3564;53.326;10.356;2023-06-14T00:39:33;4.57;;;3.00;;
7045;SDS011;3564;53.326;10.356;2023-06-14T00:41:59;3.77;;;2.30;;
7045;SDS011;3564;53.326;10.356;2023-06-14T00:44:25;4.53;;;2.97;;
7045;SDS011;3564;53.326;10.356;2023-06-14T00:46:51;4.07;;;2.83;;
7045;SDS011;3564;53.326;10.356;2023-06-14T00:49:17;3.50;;;2.53;;
7045;SDS011;3564;53.326;10.356;2023-06-14T00:51:44;8.00;;;2.80;;
7045;SDS011;3564;53.326;10.356;2023-06-14T00:54:10;3.47;;;2.60;;
7045;SDS011;3564;53.326;10.356;2023-06-14T00:56:36;3.00;;;2.70;;
7045;SDS011;3564;53.326;10.356;2023-06-14T00:59:03;6.33;;;3.20;;
7045;SDS011;3564;53.326;10.356;2023-06-14T01:01:29;3.53;;;2.90;;
7045;SDS011;3564;53.326;10.356;2023-06-14T01:03:57;5.60;;;2.80;;
7045;SDS011;3564;53.326;10.356;2023-06-14T01:09:14;3.40;;;2.93;;
7045;SDS011;3564;53.326;10.356;2023-06-14T01:14:41;4.33;;;2.90;;
7045;SDS011;3564;53.326;10.356;2023-06-14T01:17:07;3.63;;;3.03;;
7045;SDS011;3564;53.326;10.356;2023-06-14T01:19:41;4.43;;;2.73;;
7045;SDS011;3564;53.326;10.356;2023-06-14T01:22:07;4.67;;;3.07;;
7045;SDS011;3564;53.326;10.356;2023-06-14T01:24:34;3.90;;;2.87;;
7045;SDS011;3564;53.326;10.356;2023-06-14T01:27:01;6.60;;;3.23;;
7045;SDS011;3564;53.326;10.356;2023-06-14T01:29:28;7.37;;;2.77;;
7045;SDS011;3564;53.326;10.356;2023-06-14T01:31:58;4.00;;;2.77;;
7045;SDS011;3564;53.326;10.356;2023-06-14T01:34:24;5.50;;;2.80;;
7045;SDS011;3564;53.326;10.356;2023-06-14T01:36:50;4.37;;;2.90;;
7045;SDS011;3564;53.326;10.356;2023-06-14T01:39:19;4.50;;;2.60;;
7045;SDS011;3564;53.326;10.356;2023-06-14T01:41:46;3.50;;;3.03;;
7045;SDS011;3564;53.326;10.356;2023-06-14T01:44:14;3.50;;;2.90;;
7045;SDS011;3564;53.326;10.356;2023-06-14T01:46:40;3.87;;;2.90;;
7045;SDS011;3564;53.326;10.356;2023-06-14T01:49:07;5.60;;;3.10;;
7045;SDS011;3564;53.326;10.356;2023-06-14T01:51:33;4.80;;;2.80;;
7045;SDS011;3564;53.326;10.356;2023-06-14T01:53:58;4.10;;;3.10;;
7045;SDS011;3564;53.326;10.356;2023-06-14T01:56:25;6.37;;;3.07;;
7045;SDS011;3564;53.326;10.356;2023-06-14T01:58:51;4.73;;;3.20;;
7045;SDS011;3564;53.326;10.356;2023-06-14T02:01:18;4.47;;;3.10;;
7045;SDS011;3564;53.326;10.356;2023-06-14T02:03:46;4.73;;;3.20;;
7045;SDS011;3564;53.326;10.356;2023-06-14T02:06:13;5.20;;;3.17;;
7045;SDS011;3564;53.326;10.356;2023-06-14T02:08:38;5.73;;;3.20;;
7045;SDS011;3564;53.326;10.356;2023-06-14T02:11:05;6.57;;;3.00;;
7045;SDS011;3564;53.326;10.356;2023-06-14T02:13:30;5.97;;;3.30;;
7045;SDS011;3564;53.326;10.356;2023-06-14T02:15:56;4.40;;;3.40;;
7045;SDS011;3564;53.326;10.356;2023-06-14T02:18:22;5.13;;;3.17;;
7045;SDS011;3564;53.326;10.356;2023-06-14T02:20:48;5.07;;;3.20;;
7045;SDS011;3564;53.326;10.356;2023-06-14T02:23:13;4.90;;;3.10;;
7045;SDS011;3564;53.326;10.356;2023-06-14T02:25:39;6.63;;;3.00;;
7045;SDS011;3564;53.326;10.356;2023-06-14T02:28:05;8.73;;;3.50;;
7045;SDS011;3564;53.326;10.356;2023-06-14T02:30:31;4.60;;;2.97;;
7045;SDS011;3564;53.326;10.356;2023-06-14T02:32:56;4.30;;;3.13;;
7045;SDS011;3564;53.326;10.356;2023-06-14T02:35:22;4.50;;;3.00;;
7045;SDS011;3564;53.326;10.356;2023-06-14T02:37:51;4.20;;;2.80;;
7045;SDS011;3564;53.326;10.356;2023-06-14T02:40:18;6.43;;;3.17;;
7045;SDS011;3564;53.326;10.356;2023-06-14T02:42:44;4.23;;;3.10;;
7045;SDS011;3564;53.326;10.356;2023-06-14T02:45:10;5.37;;;3.10;;
7045;SDS011;3564;53.326;10.356;2023-06-14T02:47:35;5.17;;;3.10;;
7045;SDS011;3564;53.326;10.356;2023-06-14T02:50:01;5.67;;;3.10;;
7045;SDS011;3564;53.326;10.356;2023-06-14T02:52:27;5.37;;;3.33;;
7045;SDS011;3564;53.326;10.356;2023-06-14T02:54:53;4.40;;;3.23;;
7045;SDS011;3564;53.326;10.356;2023-06-14T02:57:19;4.57;;;3.40;;
7045;SDS011;3564;53.326;10.356;2023-06-14T02:59:45;6.43;;;3.10;;
7045;SDS011;3564;53.326;10.356;2023-06-14T03:02:11;4.73;;;3.47;;
7045;SDS011;3564;53.326;10.356;2023-06-14T03:04:37;5.23;;;3.27;;
7045;SDS011;3564;53.326;10.356;2023-06-14T03:07:02;6.70;;;2.90;;
7045;SDS011;3564;53.326;10.356;2023-06-14T03:09:35;4.43;;;3.20;;
7045;SDS011;3564;53.326;10.356;2023-06-14T03:12:10;4.53;;;2.90;;
7045;SDS011;3564;53.326;10.356;2023-06-14T03:14:36;4.93;;;3.40;;
7045;SDS011;3564;53.326;10.356;2023-06-14T03:17:02;6.97;;;3.13;;
7045;SDS011;3564;53.326;10.356;2023-06-14T03:19:29;8.57;;;3.27;;
7045;SDS011;3564;53.326;10.356;2023-06-14T03:21:55;5.60;;;3.37;;
7045;SDS011;3564;53.326;10.356;2023-06-14T03:24:24;6.93;;;3.17;;
7045;SDS011;3564;53.326;10.356;2023-06-14T03:26:52;7.13;;;3.27;;
7045;SDS011;3564;53.326;10.356;2023-06-14T03:29:18;7.63;;;3.57;;
7045;SDS011;3564;53.326;10.356;2023-06-14T03:31:59;4.83;;;3.07;;
7045;SDS011;3564;53.326;10.356;2023-06-14T03:34:26;5.57;;;3.27;;
7045;SDS011;3564;53.326;10.356;2023-06-14T03:36:52;6.33;;;3.10;;
7045;SDS011;3564;53.326;10.356;2023-06-14T03:39:18;6.73;;;4.00;;
7045;SDS011;3564;53.326;10.356;2023-06-14T03:41:44;6.67;;;3.73;;
7045;SDS011;3564;53.326;10.356;2023-06-14T03:44:10;6.77;;;3.50;;
7045;SDS011;3564;53.326;10.356;2023-06-14T03:46:36;5.30;;;3.23;;
7045;SDS011;3564;53.326;10.356;2023-06-14T03:49:01;6.87;;;3.50;;
7045;SDS011;3564;53.326;10.356;2023-06-14T03:51:27;4.27;;;3.20;;
7045;SDS011;3564;53.326;10.356;2023-06-14T03:53:54;5.10;;;3.60;;
7045;SDS011;3564;53.326;10.356;2023-06-14T03:56:21;6.57;;;3.63;;
7045;SDS011;3564;53.326;10.356;2023-06-14T03:58:46;4.90;;;3.40;;
7045;SDS011;3564;53.326;10.356;2023-06-14T04:01:13;4.00;;;3.03;;
7045;SDS011;3564;53.326;10.356;2023-06-14T04:03:39;5.97;;;3.87;;
7045;SDS011;3564;53.326;10.356;2023-06-14T04:06:05;6.30;;;3.50;;
7045;SDS011;3564;53.326;10.356;2023-06-14T04:08:31;3.57;;;3.07;;
7045;SDS011;3564;53.326;10.356;2023-06-14T04:10:57;4.10;;;3.30;;
7045;SDS011;3564;53.326;10.356;2023-06-14T04:13:22;6.47;;;3.70;;
7045;SDS011;3564;53.326;10.356;2023-06-14T04:15:48;6.30;;;3.70;;
7045;SDS011;3564;53.326;10.356;2023-06-14T04:18:13;6.23;;;3.97;;
7045;SDS011;3564;53.326;10.356;2023-06-14T04:20:39;6.47;;;3.70;;
7045;SDS011;3564;53.326;10.356;2023-06-14T04:23:15;5.67;;;3.63;;
7045;SDS011;3564;53.326;10.356;2023-06-14T04:25:42;5.63;;;3.50;;
7045;SDS011;3564;53.326;10.356;2023-06-14T04:28:11;5.07;;;3.50;;
7045;SDS011;3564;53.326;10.356;2023-06-14T04:30:39;5.87;;;3.07;;
7045;SDS011;3564;53.326;10.356;2023-06-14T04:33:06;10.00;;;3.93;;
7045;SDS011;3564;53.326;10.356;2023-06-14T04:35:31;7.70;;;3.97;;
7045;SDS011;3564;53.326;10.356;2023-06-14T04:37:58;6.87;;;3.40;;
7045;SDS011;3564;53.326;10.356;2023-06-14T04:40:24;5.33;;;3.77;;
7045;SDS011;3564;53.326;10.356;2023-06-14T04:42:50;7.10;;;3.50;;
7045;SDS011;3564;53.326;10.356;2023-06-14T04:45:16;9.63;;;3.40;;
7045;SDS011;3564;53.326;10.356;2023-06-14T04:47:42;10.57;;;3.60;;
7045;SDS011;3564;53.326;10.356;2023-06-14T04:50:09;6.03;;;3.83;;
7045;SDS011;3564;53.326;10.356;2023-06-14T04:52:36;5.60;;;3.50;;
7045;SDS011;3564;53.326;10.356;2023-06-14T04:55:02;14.37;;;4.20;;
7045;SDS011;3564;53.326;10.356;2023-06-14T04:57:28;7.97;;;3.80;;
7045;SDS011;3564;53.326;10.356;2023-06-14T04:59:54;6.40;;;3.70;;
7045;SDS011;3564;53.326;10.356;2023-06-14T05:02:21;9.23;;;3.77;;
7045;SDS011;3564;53.326;10.356;2023-06-14T05:04:48;6.47;;;3.93;;
7045;SDS011;3564;53.326;10.356;2023-06-14T05:07:13;12.97;;;4.27;;
7045;SDS011;3564;53.326;10.356;2023-06-14T05:09:39;6.50;;;4.00;;
7045;SDS011;3564;53.326;10.356;2023-06-14T05:12:05;6.93;;;3.80;;
7045;SDS011;3564;53.326;10.356;2023-06-14T05:14:32;5.47;;;3.83;;
7045;SDS011;3564;53.326;10.356;2023-06-14T05:16:59;5.43;;;3.77;;
7045;SDS011;3564;53.326;10.356;2023-06-14T05:19:24;5.97;;;3.70;;
7045;SDS011;3564;53.326;10.356;2023-06-14T05:21:50;9.73;;;4.10;;
7045;SDS011;3564;53.326;10.356;2023-06-14T05:24:16;7.90;;;4.07;;
7045;SDS011;3564;53.326;10.356;2023-06-14T05:26:44;8.10;;;4.57;;
7045;SDS011;3564;53.326;10.356;2023-06-14T05:29:10;7.43;;;3.90;;
7045;SDS011;3564;53.326;10.356;2023-06-14T05:31:36;5.40;;;3.90;;
7045;SDS011;3564;53.326;10.356;2023-06-14T05:34:02;4.27;;;3.63;;
7045;SDS011;3564;53.326;10.356;2023-06-14T05:36:28;6.53;;;3.80;;
7045;SDS011;3564;53.326;10.356;2023-06-14T05:38:54;7.47;;;4.27;;
7045;SDS011;3564;53.326;10.356;2023-06-14T05:41:26;6.23;;;3.43;;
7045;SDS011;3564;53.326;10.356;2023-06-14T05:43:52;5.53;;;3.47;;
7045;SDS011;3564;53.326;10.356;2023-06-14T05:46:19;5.13;;;3.80;;
7045;SDS011;3564;53.326;10.356;2023-06-14T05:48:47;6.07;;;4.40;;
7045;SDS011;3564;53.326;10.356;2023-06-14T05:51:13;5.20;;;4.00;;
7045;SDS011;3564;53.326;10.356;2023-06-14T05:53:39;5.97;;;3.63;;
7045;SDS011;3564;53.326;10.356;2023-06-14T05:56:05;7.10;;;4.13;;
7045;SDS011;3564;53.326;10.356;2023-06-14T05:58:31;6.57;;;3.73;;
7045;SDS011;3564;53.326;10.356;2023-06-14T06:00:56;8.73;;;4.00;;
7045;SDS011;3564;53.326;10.356;2023-06-14T06:03:22;9.27;;;3.73;;
7045;SDS011;3564;53.326;10.356;2023-06-14T06:05:51;7.90;;;3.73;;
7045;SDS011;3564;53.326;10.356;2023-06-14T06:08:17;10.00;;;4.03;;
7045;SDS011;3564;53.326;10.356;2023-06-14T06:10:42;6.80;;;3.97;;
7045;SDS011;3564;53.326;10.356;2023-06-14T06:13:08;7.27;;;3.67;;
7045;SDS011;3564;53.326;10.356;2023-06-14T06:15:34;8.43;;;4.33;;
7045;SDS011;3564;53.326;10.356;2023-06-14T06:18:00;5.33;;;3.50;;
7045;SDS011;3564;53.326;10.356;2023-06-14T06:20:26;6.87;;;3.90;;
7045;SDS011;3564;53.326;10.356;2023-06-14T06:22:53;5.83;;;3.27;;
7045;SDS011;3564;53.326;10.356;2023-06-14T06:25:18;8.03;;;4.07;;
7045;SDS011;3564;53.326;10.356;2023-06-14T06:27:44;9.20;;;3.83;;
7045;SDS011;3564;53.326;10.356;2023-06-14T06:30:10;5.33;;;3.00;;
7045;SDS011;3564;53.326;10.356;2023-06-14T06:32:36;5.27;;;3.43;;
7045;SDS011;3564;53.326;10.356;2023-06-14T06:35:02;6.50;;;3.83;;
7045;SDS011;3564;53.326;10.356;2023-06-14T06:37:28;7.17;;;3.97;;
7045;SDS011;3564;53.326;10.356;2023-06-14T06:39:53;5.20;;;2.97;;
7045;SDS011;3564;53.326;10.356;2023-06-14T06:42:19;6.90;;;3.40;;
7045;SDS011;3564;53.326;10.356;2023-06-14T06:44:45;5.50;;;3.40;;
7045;SDS011;3564;53.326;10.356;2023-06-14T06:47:10;4.13;;;3.03;;
7045;SDS011;3564;53.326;10.356;2023-06-14T06:49:36;5.70;;;3.00;;
7045;SDS011;3564;53.326;10.356;2023-06-14T06:52:02;4.70;;;3.03;;
7045;SDS011;3564;53.326;10.356;2023-06-14T06:54:30;5.83;;;3.20;;
7045;SDS011;3564;53.326;10.356;2023-06-14T06:56:56;6.77;;;3.80;;
7045;SDS011;3564;53.326;10.356;2023-06-14T06:59:21;6.20;;;3.00;;
7045;SDS011;3564;53.326;10.356;2023-06-14T07:01:47;4.90;;;3.13;;
7045;SDS011;3564;53.326;10.356;2023-06-14T07:04:13;4.43;;;3.10;;
7045;SDS011;3564;53.326;10.356;2023-06-14T07:06:39;4.60;;;3.00;;
7045;SDS011;3564;53.326;10.356;2023-06-14T07:09:05;5.70;;;3.10;;
7045;SDS011;3564;53.326;10.356;2023-06-14T07:11:33;7.60;;;3.00;;
7045;SDS011;3564;53.326;10.356;2023-06-14T07:13:59;5.07;;;3.23;;
7045;SDS011;3564;53.326;10.356;2023-06-14T07:16:24;3.10;;;2.80;;
7045;SDS011;3564;53.326;10.356;2023-06-14T07:18:50;4.60;;;3.23;;
7045;SDS011;3564;53.326;10.356;2023-06-14T07:21:16;3.70;;;3.00;;
7045;SDS011;3564;53.326;10.356;2023-06-14T07:23:42;3.93;;;2.90;;
7045;SDS011;3564;53.326;10.356;2023-06-14T07:26:07;7.73;;;3.10;;
7045;SDS011;3564;53.326;10.356;2023-06-14T07:28:33;3.00;;;2.70;;
7045;SDS011;3564;53.326;10.356;2023-06-14T07:30:59;3.47;;;2.90;;
7045;SDS011;3564;53.326;10.356;2023-06-14T07:33:24;4.60;;;3.03;;
7045;SDS011;3564;53.326;10.356;2023-06-14T07:35:50;5.10;;;2.90;;
7045;SDS011;3564;53.326;10.356;2023-06-14T07:38:17;4.27;;;3.30;;
7045;SDS011;3564;53.326;10.356;2023-06-14T07:40:42;4.50;;;3.00;;
7045;SDS011;3564;53.326;10.356;2023-06-14T07:43:08;4.97;;;2.93;;
7045;SDS011;3564;53.326;10.356;2023-06-14T07:45:34;3.57;;;2.90;;
7045;SDS011;3564;53.326;10.356;2023-06-14T07:47:59;4.50;;;2.80;;
7045;SDS011;3564;53.326;10.356;2023-06-14T07:50:25;5.03;;;2.80;;
7045;SDS011;3564;53.326;10.356;2023-06-14T07:52:50;3.97;;;3.10;;
7045;SDS011;3564;53.326;10.356;2023-06-14T07:55:16;4.03;;;3.27;;
7045;SDS011;3564;53.326;10.356;2023-06-14T07:57:42;3.50;;;2.80;;
7045;SDS011;3564;53.326;10.356;2023-06-14T08:00:09;3.33;;;3.03;;
7045;SDS011;3564;53.326;10.356;2023-06-14T08:02:43;3.73;;;2.83;;
7045;SDS011;3564;53.326;10.356;2023-06-14T08:05:09;3.97;;;3.33;;
7045;SDS011;3564;53.326;10.356;2023-06-14T08:07:36;4.43;;;2.47;;
7045;SDS011;3564;53.326;10.356;2023-06-14T08:10:02;4.33;;;2.90;;
7045;SDS011;3564;53.326;10.356;2023-06-14T08:12:29;5.57;;;3.00;;
7045;SDS011;3564;53.326;10.356;2023-06-14T08:14:55;7.53;;;2.57;;
7045;SDS011;3564;53.326;10.356;2023-06-14T08:17:20;5.13;;;2.93;;
7045;SDS011;3564;53.326;10.356;2023-06-14T08:19:46;3.17;;;2.53;;
7045;SDS011;3564;53.326;10.356;2023-06-14T08:22:11;3.90;;;2.20;;
7045;SDS011;3564;53.326;10.356;2023-06-14T08:24:37;5.20;;;2.80;;
7045;SDS011;3564;53.326;10.356;2023-06-14T08:27:04;3.50;;;2.53;;
7045;SDS011;3564;53.326;10.356;2023-06-14T08:29:30;3.60;;;2.93;;
7045;SDS011;3564;53.326;10.356;2023-06-14T08:31:57;3.10;;;2.60;;
7045;SDS011;3564;53.326;10.356;2023-06-14T08:34:23;5.17;;;2.80;;
7045;SDS011;3564;53.326;10.356;2023-06-14T08:36:52;6.50;;;3.13;;
7045;SDS011;3564;53.326;10.356;2023-06-14T08:39:17;6.37;;;3.07;;
7045;SDS011;3564;53.326;10.356;2023-06-14T08:41:46;6.60;;;3.03;;
7045;SDS011;3564;53.326;10.356;2023-06-14T08:44:16;3.23;;;2.93;;
7045;SDS011;3564;53.326;10.356;2023-06-14T08:46:42;3.47;;;2.60;;
7045;SDS011;3564;53.326;10.356;2023-06-14T08:49:11;3.37;;;2.70;;
7045;SDS011;3564;53.326;10.356;2023-06-14T08:51:37;4.23;;;2.70;;
7045;SDS011;3564;53.326;10.356;2023-06-14T08:54:05;6.23;;;3.27;;
7045;SDS011;3564;53.326;10.356;2023-06-14T08:56:31;4.03;;;2.93;;
7045;SDS011;3564;53.326;10.356;2023-06-14T08:58:59;4.43;;;2.90;;
7045;SDS011;3564;53.326;10.356;2023-06-14T09:01:31;4.10;;;2.80;;
7045;SDS011;3564;53.326;10.356;2023-06-14T09:03:59;4.00;;;2.60;;
7045;SDS011;3564;53.326;10.356;2023-06-14T09:06:25;5.57;;;3.37;;
7045;SDS011;3564;53.326;10.356;2023-06-14T09:08:54;6.87;;;2.80;;
7045;SDS011;3564;53.326;10.356;2023-06-14T09:11:23;4.70;;;2.73;;
7045;SDS011;3564;53.326;10.356;2023-06-14T09:13:49;4.70;;;2.93;;
7045;SDS011;3564;53.326;10.356;2023-06-14T09:16:15;3.57;;;3.20;;
7045;SDS011;3564;53.326;10.356;2023-06-14T09:18:42;5.90;;;3.13;;
7045;SDS011;3564;53.326;10.356;2023-06-14T09:21:10;4.03;;;2.93;;
7045;SDS011;3564;53.326;10.356;2023-06-14T09:23:40;4.45;;;2.90;;
7045;SDS011;3564;53.326;10.356;2023-06-14T09:26:13;4.03;;;2.90;;
7045;SDS011;3564;53.326;10.356;2023-06-14T09:28:55;5.50;;;3.10;;
7045;SDS011;3564;53.326;10.356;2023-06-14T09:31:21;5.50;;;3.23;;
7045;SDS011;3564;53.326;10.356;2023-06-14T09:33:50;5.03;;;2.93;;
7045;SDS011;3564;53.326;10.356;2023-06-14T09:36:16;3.40;;;2.80;;
7045;SDS011;3564;53.326;10.356;2023-06-14T09:38:56;4.07;;;3.10;;
7045;SDS011;3564;53.326;10.356;2023-06-14T09:41:32;4.83;;;3.17;;
7045;SDS011;3564;53.326;10.356;2023-06-14T09:44:09;3.37;;;2.90;;
7045;SDS011;3564;53.326;10.356;2023-06-14T09:46:36;3.60;;;2.97;;
7045;SDS011;3564;53.326;10.356;2023-06-14T09:49:03;4.83;;;3.37;;
7045;SDS011;3564;53.326;10.356;2023-06-14T09:51:30;4.30;;;3.40;;
7045;SDS011;3564;53.326;10.356;2023-06-14T09:54:05;5.80;;;3.08;;
7045;SDS011;3564;53.326;10.356;2023-06-14T09:56:34;5.63;;;3.30;;
7045;SDS011;3564;53.326;10.356;2023-06-14T09:59:04;6.90;;;3.30;;
7045;SDS011;3564;53.326;10.356;2023-06-14T10:01:31;4.22;;;3.53;;
7045;SDS011;3564;53.326;10.356;2023-06-14T10:04:05;4.78;;;3.10;;
7045;SDS011;3564;53.326;10.356;2023-06-14T10:06:35;4.07;;;2.95;;
7045;SDS011;3564;53.326;10.356;2023-06-14T10:09:03;6.53;;;3.63;;
7045;SDS011;3564;53.326;10.356;2023-06-14T10:11:30;4.93;;;3.20;;
7045;SDS011;3564;53.326;10.356;2023-06-14T10:13:56;4.95;;;3.45;;
7045;SDS011;3564;53.326;10.356;2023-06-14T10:16:31;4.63;;;2.78;;
7045;SDS011;3564;53.326;10.356;2023-06-14T10:19:13;6.20;;;3.03;;
7045;SDS011;3564;53.326;10.356;2023-06-14T10:22:06;9.30;;;3.25;;
7045;SDS011;3564;53.326;10.356;2023-06-14T10:24:38;5.75;;;2.88;;
7045;SDS011;3564;53.326;10.356;2023-06-14T10:27:10;5.13;;;2.95;;
7045;SDS011;3564;53.326;10.356;2023-06-14T10:32:20;4.28;;;2.95;;
7045;SDS011;3564;53.326;10.356;2023-06-14T10:34:51;8.25;;;3.65;;
7045;SDS011;3564;53.326;10.356;2023-06-14T10:37:20;7.35;;;3.42;;
7045;SDS011;3564;53.326;10.356;2023-06-14T10:39:46;7.97;;;3.47;;
7045;SDS011;3564;53.326;10.356;2023-06-14T10:42:12;6.18;;;3.05;;
7045;SDS011;3564;53.326;10.356;2023-06-14T10:47:06;7.35;;;3.13;;
7045;SDS011;3564;53.326;10.356;2023-06-14T10:49:41;3.40;;;3.05;;
7045;SDS011;3564;53.326;10.356;2023-06-14T10:52:15;5.38;;;3.08;;
7045;SDS011;3564;53.326;10.356;2023-06-14T10:57:34;4.43;;;3.15;;
7045;SDS011;3564;53.326;10.356;2023-06-14T11:00:01;8.38;;;3.03;;
7045;SDS011;3564;53.326;10.356;2023-06-14T11:05:39;7.38;;;2.85;;
7045;SDS011;3564;53.326;10.356;2023-06-14T11:10:59;5.18;;;2.95;;
7045;SDS011;3564;53.326;10.356;2023-06-14T11:13:26;3.78;;;2.70;;
7045;SDS011;3564;53.326;10.356;2023-06-14T11:15:52;3.92;;;2.70;;
7045;SDS011;3564;53.326;10.356;2023-06-14T11:18:18;3.85;;;2.67;;
7045;SDS011;3564;53.326;10.356;2023-06-14T11:20:49;4.95;;;2.90;;
7045;SDS011;3564;53.326;10.356;2023-06-14T11:23:16;4.28;;;2.83;;
7045;SDS011;3564;53.326;10.356;2023-06-14T11:25:41;6.07;;;2.92;;
7045;SDS011;3564;53.326;10.356;2023-06-14T11:28:07;3.60;;;2.78;;
7045;SDS011;3564;53.326;10.356;2023-06-14T11:30:33;4.30;;;2.85;;
7045;SDS011;3564;53.326;10.356;2023-06-14T11:32:58;7.82;;;2.85;;
7045;SDS011;3564;53.326;10.356;2023-06-14T11:35:24;6.88;;;2.80;;
7045;SDS011;3564;53.326;10.356;2023-06-14T11:37:54;5.38;;;2.90;;
7045;SDS011;3564;53.326;10.356;2023-06-14T11:40:25;7.95;;;3.00;;
7045;SDS011;3564;53.326;10.356;2023-06-14T11:42:59;5.47;;;2.55;;
7045;SDS011;3564;53.326;10.356;2023-06-14T11:45:26;5.97;;;3.22;;
7045;SDS011;3564;53.326;10.356;2023-06-14T11:47:53;3.47;;;3.17;;
7045;SDS011;3564;53.326;10.356;2023-06-14T11:50:21;5.63;;;3.00;;
7045;SDS011;3564;53.326;10.356;2023-06-14T11:52:51;6.68;;;3.10;;
7045;SDS011;3564;53.326;10.356;2023-06-14T11:55:32;11.68;;;3.60;;
7045;SDS011;3564;53.326;10.356;2023-06-14T11:58:04;9.15;;;3.10;;
7045;SDS011;3564;53.326;10.356;2023-06-14T12:00:29;12.70;;;3.00;;
7045;SDS011;3564;53.326;10.356;2023-06-14T12:02:56;6.35;;;2.95;;
7045;SDS011;3564;53.326;10.356;2023-06-14T12:05:22;3.85;;;2.80;;
7045;SDS011;3564;53.326;10.356;2023-06-14T12:07:48;5.30;;;2.97;;
7045;SDS011;3564;53.326;10.356;2023-06-14T12:10:15;7.03;;;3.22;;
7045;SDS011;3564;53.326;10.356;2023-06-14T12:12:41;6.82;;;3.20;;
7045;SDS011;3564;53.326;10.356;2023-06-14T12:15:08;7.50;;;2.58;;
7045;SDS011;3564;53.326;10.356;2023-06-14T12:17:38;3.42;;;2.58;;
7045;SDS011;3564;53.326;10.356;2023-06-14T12:20:09;6.55;;;2.30;;
7045;SDS011;3564;53.326;10.356;2023-06-14T12:22:36;8.55;;;2.78;;
7045;SDS011;3564;53.326;10.356;2023-06-14T12:25:02;6.78;;;3.13;;
7045;SDS011;3564;53.326;10.356;2023-06-14T12:27:30;6.13;;;3.58;;
7045;SDS011;3564;53.326;10.356;2023-06-14T12:30:02;6.10;;;2.97;;
7045;SDS011;3564;53.326;10.356;2023-06-14T12:32:44;5.38;;;2.70;;
7045;SDS011;3564;53.326;10.356;2023-06-14T12:35:10;4.45;;;2.80;;
7045;SDS011;3564;53.326;10.356;2023-06-14T12:37:36;5.10;;;2.65;;
7045;SDS011;3564;53.326;10.356;2023-06-14T12:40:01;8.35;;;3.05;;
7045;SDS011;3564;53.326;10.356;2023-06-14T12:42:30;7.65;;;2.95;;
7045;SDS011;3564;53.326;10.356;2023-06-14T12:44:56;3.95;;;2.60;;
7045;SDS011;3564;53.326;10.356;2023-06-14T12:47:22;6.63;;;2.75;;
7045;SDS011;3564;53.326;10.356;2023-06-14T12:49:50;3.38;;;2.45;;
7045;SDS011;3564;53.326;10.356;2023-06-14T12:52:16;6.40;;;2.50;;
7045;SDS011;3564;53.326;10.356;2023-06-14T12:54:42;4.72;;;2.83;;
7045;SDS011;3564;53.326;10.356;2023-06-14T12:57:07;5.18;;;2.95;;
7045;SDS011;3564;53.326;10.356;2023-06-14T12:59:33;3.53;;;2.47;;
7045;SDS011;3564;53.326;10.356;2023-06-14T13:01:59;5.05;;;2.58;;
7045;SDS011;3564;53.326;10.356;2023-06-14T13:04:35;3.50;;;2.72;;
7045;SDS011;3564;53.326;10.356;2023-06-14T13:07:02;6.88;;;2.58;;
7045;SDS011;3564;53.326;10.356;2023-06-14T13:09:28;6.18;;;2.30;;
7045;SDS011;3564;53.326;10.356;2023-06-14T13:11:53;7.40;;;2.92;;
7045;SDS011;3564;53.326;10.356;2023-06-14T13:14:19;4.80;;;2.53;;
7045;SDS011;3564;53.326;10.356;2023-06-14T13:16:45;3.92;;;2.95;;
7045;SDS011;3564;53.326;10.356;2023-06-14T13:19:10;4.55;;;2.67;;
7045;SDS011;3564;53.326;10.356;2023-06-14T13:21:36;2.80;;;2.40;;
7045;SDS011;3564;53.326;10.356;2023-06-14T13:24:01;6.22;;;3.00;;
7045;SDS011;3564;53.326;10.356;2023-06-14T13:26:27;5.20;;;2.80;;
7045;SDS011;3564;53.326;10.356;2023-06-14T13:28:53;4.25;;;2.90;;
7045;SDS011;3564;53.326;10.356;2023-06-14T13:31:18;4.30;;;2.30;;
7045;SDS011;3564;53.326;10.356;2023-06-14T13:33:44;3.65;;;2.65;;
7045;SDS011;3564;53.326;10.356;2023-06-14T13:36:11;5.53;;;2.75;;
7045;SDS011;3564;53.326;10.356;2023-06-14T13:38:37;5.32;;;2.90;;
7045;SDS011;3564;53.326;10.356;2023-06-14T13:41:02;3.15;;;2.50;;
7045;SDS011;3564;53.326;10.356;2023-06-14T13:43:28;4.28;;;2.60;;
7045;SDS011;3564;53.326;10.356;2023-06-14T13:45:54;6.55;;;2.83;;
7045;SDS011;3564;53.326;10.356;2023-06-14T13:48:20;9.57;;;2.80;;
7045;SDS011;3564;53.326;10.356;2023-06-14T13:50:45;5.03;;;2.97;;
7045;SDS011;3564;53.326;10.356;2023-06-14T13:53:11;4.57;;;2.90;;
7045;SDS011;3564;53.326;10.356;2023-06-14T13:55:37;3.35;;;2.60;;
7045;SDS011;3564;53.326;10.356;2023-06-14T13:58:02;5.70;;;2.78;;
7045;SDS011;3564;53.326;10.356;2023-06-14T14:00:28;6.15;;;2.85;;
7045;SDS011;3564;53.326;10.356;2023-06-14T14:02:53;3.25;;;2.58;;
7045;SDS011;3564;53.326;10.356;2023-06-14T14:05:19;3.67;;;2.65;;
7045;SDS011;3564;53.326;10.356;2023-06-14T14:07:45;5.45;;;2.53;;
7045;SDS011;3564;53.326;10.356;2023-06-14T14:10:11;5.05;;;2.80;;
7045;SDS011;3564;53.326;10.356;2023-06-14T14:12:38;4.28;;;2.55;;
7045;SDS011;3564;53.326;10.356;2023-06-14T14:15:04;7.50;;;3.00;;
7045;SDS011;3564;53.326;10.356;2023-06-14T14:17:37;4.65;;;2.75;;
7045;SDS011;3564;53.326;10.356;2023-06-14T14:20:03;7.03;;;3.10;;
7045;SDS011;3564;53.326;10.356;2023-06-14T14:22:29;5.47;;;2.78;;
7045;SDS011;3564;53.326;10.356;2023-06-14T14:24:55;7.10;;;2.92;;
7045;SDS011;3564;53.326;10.356;2023-06-14T14:27:20;6.28;;;2.85;;
7045;SDS011;3564;53.326;10.356;2023-06-14T14:29:46;4.40;;;2.38;;
7045;SDS011;3564;53.326;10.356;2023-06-14T14:32:11;6.65;;;2.78;;
7045;SDS011;3564;53.326;10.356;2023-06-14T14:34:39;4.63;;;2.75;;
7045;SDS011;3564;53.326;10.356;2023-06-14T14:37:05;5.28;;;2.83;;
7045;SDS011;3564;53.326;10.356;2023-06-14T14:39:30;6.68;;;2.50;;
7045;SDS011;3564;53.326;10.356;2023-06-14T14:41:56;4.75;;;2.75;;
7045;SDS011;3564;53.326;10.356;2023-06-14T14:44:21;4.40;;;2.80;;
7045;SDS011;3564;53.326;10.356;2023-06-14T14:46:47;4.47;;;2.50;;
7045;SDS011;3564;53.326;10.356;2023-06-14T14:49:13;2.88;;;2.60;;
7045;SDS011;3564;53.326;10.356;2023-06-14T14:51:38;3.95;;;2.78;;
7045;SDS011;3564;53.326;10.356;2023-06-14T14:54:04;6.80;;;2.60;;
7045;SDS011;3564;53.326;10.356;2023-06-14T14:56:31;4.13;;;2.40;;
7045;SDS011;3564;53.326;10.356;2023-06-14T14:58:56;4.28;;;2.78;;
7045;SDS011;3564;53.326;10.356;2023-06-14T15:01:22;3.15;;;2.83;;
7045;SDS011;3564;53.326;10.356;2023-06-14T15:03:48;4.32;;;2.85;;
7045;SDS011;3564;53.326;10.356;2023-06-14T15:06:13;3.15;;;2.85;;
7045;SDS011;3564;53.326;10.356;2023-06-14T15:08:39;3.50;;;2.80;;
7045;SDS011;3564;53.326;10.356;2023-06-14T15:11:05;5.05;;;3.05;;
7045;SDS011;3564;53.326;10.356;2023-06-14T15:13:31;4.95;;;2.65;;
7045;SDS011;3564;53.326;10.356;2023-06-14T15:15:57;6.35;;;2.97;;
7045;SDS011;3564;53.326;10.356;2023-06-14T15:18:23;5.78;;;2.97;;